sensor_id;sensor_type;location;lat;lon;timestamp;temperature;humidity
18408;DHT22;9330;52.210;21.174;2023-06-22T00:01:16;19.90;99.90
18408;DHT22;9330;52.210;21.174;2023-06-22T00:03:43;19.80;99.90
18408;DHT22;9330;52.210;21.174;2023-06-22T00:06:10;19.80;99.90
18408;DHT22;9330;52.210;21.174;2023-06-22T00:08:36;19.80;99.90
18408;DHT22;9330;52.210;21.174;2023-06-22T00:11:03;19.80;99.90
18408;DHT22;9330;52.210;21.174;2023-06-22T00:13:32;19.70;99.90
18408;DHT22;9330;52.210;21.174;2023-06-22T00:15:58;19.70;99.90
18408;DHT22;9330;52.210;21.174;2023-06-22T00:18:26;19.60;99.90
18408;DHT22;9330;52.210;21.174;2023-06-22T00:20:54;19.60;99.90
18408;DHT22;9330;52.210;21.174;2023-06-22T00:23:23;19.50;99.90
18408;DHT22;9330;52.210;21.174;2023-06-22T00:25:50;19.60;99.90
18408;DHT22;9330;52.210;21.174;2023-06-22T00:28:17;19.50;99.90
18408;DHT22;9330;52.210;21.174;2023-06-22T00:30:45;19.50;99.90
18408;DHT22;9330;52.210;21.174;2023-06-22T00:33:13;19.40;99.90
18408;DHT22;9330;52.210;21.174;2023-06-22T00:35:41;19.40;99.90
18408;DHT22;9330;52.210;21.174;2023-06-22T00:38:09;19.40;99.90
18408;DHT22;9330;52.210;21.174;2023-06-22T00:40:36;19.40;99.90
18408;DHT22;9330;52.210;21.174;2023-06-22T00:43:04;19.40;99.90
18408;DHT22;9330;52.210;21.174;2023-06-22T00:45:31;19.30;99.90
18408;DHT22;9330;52.210;21.174;2023-06-22T00:48:00;19.30;99.90
18408;DHT22;9330;52.210;21.174;2023-06-22T00:50:29;19.30;99.90
18408;DHT22;9330;52.210;21.174;2023-06-22T00:53:00;19.30;99.90
18408;DHT22;9330;52.210;21.174;2023-06-22T00:55:33;19.20;99.90
18408;DHT22;9330;52.210;21.174;2023-06-22T00:58:01;19.20;99.90
18408;DHT22;9330;52.210;21.174;2023-06-22T01:00:28;19.20;99.90
18408;DHT22;9330;52.210;21.174;2023-06-22T01:02:55;19.20;99.90
18408;DHT22;9330;52.210;21.174;2023-06-22T01:05:24;19.10;99.90
18408;DHT22;9330;52.210;21.174;2023-06-22T01:08:00;19.10;99.90
18408;DHT22;9330;52.210;21.174;2023-06-22T01:10:36;19.10;99.90
18408;DHT22;9330;52.210;21.174;2023-06-22T01:13:08;19.10;99.90
18408;DHT22;9330;52.210;21.174;2023-06-22T01:15:39;19.10;99.90
18408;DHT22;9330;52.210;21.174;2023-06-22T01:18:08;19.00;99.90
18408;DHT22;9330;52.210;21.174;2023-06-22T01:20:38;19.00;99.90
18408;DHT22;9330;52.210;21.174;2023-06-22T01:23:11;19.00;99.90
18408;DHT22;9330;52.210;21.174;2023-06-22T01:25:46;19.00;99.90
18408;DHT22;9330;52.210;21.174;2023-06-22T01:28:31;19.00;99.90
18408;DHT22;9330;52.210;21.174;2023-06-22T01:30:59;18.90;99.90
18408;DHT22;9330;52.210;21.174;2023-06-22T01:33:34;18.90;99.90
18408;DHT22;9330;52.210;21.174;2023-06-22T01:36:02;18.90;99.90
18408;DHT22;9330;52.210;21.174;2023-06-22T01:38:29;18.90;99.90
18408;DHT22;9330;52.210;21.174;2023-06-22T01:40:57;18.80;99.90
18408;DHT22;9330;52.210;21.174;2023-06-22T01:43:26;18.80;99.90
18408;DHT22;9330;52.210;21.174;2023-06-22T01:45:55;18.80;99.90
18408;DHT22;9330;52.210;21.174;2023-06-22T01:48:22;18.80;99.90
18408;DHT22;9330;52.210;21.174;2023-06-22T01:50:51;18.80;99.90
18408;DHT22;9330;52.210;21.174;2023-06-22T01:53:18;18.70;99.90
18408;DHT22;9330;52.210;21.174;2023-06-22T01:55:46;18.70;99.90
18408;DHT22;9330;52.210;21.174;2023-06-22T01:58:13;18.70;99.90
18408;DHT22;9330;52.210;21.174;2023-06-22T02:00:44;18.70;99.90
18408;DHT22;9330;52.210;21.174;2023-06-22T02:03:17;18.60;99.90
18408;DHT22;9330;52.210;21.174;2023-06-22T02:05:49;18.60;99.90
18408;DHT22;9330;52.210;21.174;2023-06-22T02:08:20;18.70;99.90
18408;DHT22;9330;52.210;21.174;2023-06-22T02:10:49;18.70;99.90
18408;DHT22;9330;52.210;21.174;2023-06-22T02:13:18;18.60;99.90
18408;DHT22;9330;52.210;21.174;2023-06-22T02:15:46;18.50;99.90
18408;DHT22;9330;52.210;21.174;2023-06-22T02:18:15;18.50;99.90
18408;DHT22;9330;52.210;21.174;2023-06-22T02:20:42;18.50;99.90
18408;DHT22;9330;52.210;21.174;2023-06-22T02:23:09;18.60;99.90
18408;DHT22;9330;52.210;21.174;2023-06-22T02:25:36;18.60;99.90
18408;DHT22;9330;52.210;21.174;2023-06-22T02:28:03;18.50;99.90
18408;DHT22;9330;52.210;21.174;2023-06-22T02:30:31;18.60;99.90
18408;DHT22;9330;52.210;21.174;2023-06-22T02:32:58;18.50;99.90
18408;DHT22;9330;52.210;21.174;2023-06-22T02:35:27;18.50;99.90
18408;DHT22;9330;52.210;21.174;2023-06-22T02:37:57;18.60;99.90
18408;DHT22;9330;52.210;21.174;2023-06-22T02:40:25;18.60;99.90
18408;DHT22;9330;52.210;21.174;2023-06-22T02:42:52;18.50;99.90
18408;DHT22;9330;52.210;21.174;2023-06-22T02:45:19;18.60;99.90
18408;DHT22;9330;52.210;21.174;2023-06-22T02:47:46;18.60;99.90
18408;DHT22;9330;52.210;21.174;2023-06-22T02:50:13;18.60;99.90
18408;DHT22;9330;52.210;21.174;2023-06-22T02:52:41;18.70;99.90
18408;DHT22;9330;52.210;21.174;2023-06-22T02:55:08;18.60;99.90
18408;DHT22;9330;52.210;21.174;2023-06-22T02:57:35;18.70;99.90
18408;DHT22;9330;52.210;21.174;2023-06-22T03:00:04;18.70;99.90
18408;DHT22;9330;52.210;21.174;2023-06-22T03:02:42;18.70;99.90
18408;DHT22;9330;52.210;21.174;2023-06-22T03:05:09;18.80;99.90
18408;DHT22;9330;52.210;21.174;2023-06-22T03:07:40;18.80;99.90
18408;DHT22;9330;52.210;21.174;2023-06-22T03:10:08;18.80;99.90
18408;DHT22;9330;52.210;21.174;2023-06-22T03:12:36;18.80;99.90
18408;DHT22;9330;52.210;21.174;2023-06-22T03:15:04;18.90;99.90
18408;DHT22;9330;52.210;21.174;2023-06-22T03:17:31;18.90;99.90
18408;DHT22;9330;52.210;21.174;2023-06-22T03:19:58;18.90;99.90
18408;DHT22;9330;52.210;21.174;2023-06-22T03:22:25;19.00;99.90
18408;DHT22;9330;52.210;21.174;2023-06-22T03:24:53;19.00;99.90
18408;DHT22;9330;52.210;21.174;2023-06-22T03:27:20;19.00;99.90
18408;DHT22;9330;52.210;21.174;2023-06-22T03:29:47;19.00;99.90
18408;DHT22;9330;52.210;21.174;2023-06-22T03:32:13;19.10;99.90
18408;DHT22;9330;52.210;21.174;2023-06-22T03:34:40;19.10;99.90
18408;DHT22;9330;52.210;21.174;2023-06-22T03:37:13;19.20;99.90
18408;DHT22;9330;52.210;21.174;2023-06-22T03:39:40;19.20;99.90
18408;DHT22;9330;52.210;21.174;2023-06-22T03:42:08;19.30;99.90
18408;DHT22;9330;52.210;21.174;2023-06-22T03:44:35;19.30;99.90
18408;DHT22;9330;52.210;21.174;2023-06-22T03:47:03;19.30;99.90
18408;DHT22;9330;52.210;21.174;2023-06-22T03:49:32;19.40;99.90
18408;DHT22;9330;52.210;21.174;2023-06-22T03:51:59;19.50;99.90
18408;DHT22;9330;52.210;21.174;2023-06-22T03:54:26;19.50;99.90
18408;DHT22;9330;52.210;21.174;2023-06-22T03:56:53;19.70;99.90
18408;DHT22;9330;52.210;21.174;2023-06-22T03:59:21;19.70;99.90
18408;DHT22;9330;52.210;21.174;2023-06-22T04:01:48;19.70;99.90
18408;DHT22;9330;52.210;21.174;2023-06-22T04:04:16;19.80;99.90
18408;DHT22;9330;52.210;21.174;2023-06-22T04:06:42;19.90;99.90
18408;DHT22;9330;52.210;21.174;2023-06-22T04:09:09;19.90;99.90
18408;DHT22;9330;52.210;21.174;2023-06-22T04:11:36;19.90;99.90
18408;DHT22;9330;52.210;21.174;2023-06-22T04:14:03;20.00;99.90
18408;DHT22;9330;52.210;21.174;2023-06-22T04:16:32;20.00;99.90
18408;DHT22;9330;52.210;21.174;2023-06-22T04:18:59;20.00;99.90
18408;DHT22;9330;52.210;21.174;2023-06-22T04:21:27;20.10;99.90
18408;DHT22;9330;52.210;21.174;2023-06-22T04:23:53;20.10;99.90
18408;DHT22;9330;52.210;21.174;2023-06-22T04:26:20;20.10;99.90
18408;DHT22;9330;52.210;21.174;2023-06-22T04:28:47;20.10;99.90
18408;DHT22;9330;52.210;21.174;2023-06-22T04:31:17;20.20;99.90
18408;DHT22;9330;52.210;21.174;2023-06-22T04:33:45;20.20;99.90
18408;DHT22;9330;52.210;21.174;2023-06-22T04:36:12;20.20;99.90
18408;DHT22;9330;52.210;21.174;2023-06-22T04:38:40;20.30;99.90
18408;DHT22;9330;52.210;21.174;2023-06-22T04:41:07;20.30;99.90
18408;DHT22;9330;52.210;21.174;2023-06-22T04:43:48;20.30;99.90
18408;DHT22;9330;52.210;21.174;2023-06-22T04:46:19;20.30;99.90
18408;DHT22;9330;52.210;21.174;2023-06-22T04:48:47;20.30;99.90
18408;DHT22;9330;52.210;21.174;2023-06-22T04:51:14;20.40;99.90
18408;DHT22;9330;52.210;21.174;2023-06-22T04:53:41;20.40;99.90
18408;DHT22;9330;52.210;21.174;2023-06-22T04:56:08;20.60;99.90
18408;DHT22;9330;52.210;21.174;2023-06-22T04:58:35;20.60;99.90
18408;DHT22;9330;52.210;21.174;2023-06-22T05:01:02;20.70;99.90
18408;DHT22;9330;52.210;21.174;2023-06-22T05:03:29;20.80;99.90
18408;DHT22;9330;52.210;21.174;2023-06-22T05:05:57;20.80;99.90
18408;DHT22;9330;52.210;21.174;2023-06-22T05:08:24;20.90;99.90
18408;DHT22;9330;52.210;21.174;2023-06-22T05:10:54;20.90;99.90
18408;DHT22;9330;52.210;21.174;2023-06-22T05:13:20;20.90;99.90
18408;DHT22;9330;52.210;21.174;2023-06-22T05:15:51;20.90;99.90
18408;DHT22;9330;52.210;21.174;2023-06-22T05:18:26;20.90;99.90
18408;DHT22;9330;52.210;21.174;2023-06-22T05:20:54;20.90;99.90
18408;DHT22;9330;52.210;21.174;2023-06-22T05:23:22;21.00;99.90
18408;DHT22;9330;52.210;21.174;2023-06-22T05:25:49;21.00;99.90
18408;DHT22;9330;52.210;21.174;2023-06-22T05:28:16;21.00;99.90
18408;DHT22;9330;52.210;21.174;2023-06-22T05:30:48;21.00;99.90
18408;DHT22;9330;52.210;21.174;2023-06-22T05:33:15;21.00;99.90
18408;DHT22;9330;52.210;21.174;2023-06-22T05:35:42;21.10;99.90
18408;DHT22;9330;52.210;21.174;2023-06-22T05:38:09;21.00;99.90
18408;DHT22;9330;52.210;21.174;2023-06-22T05:40:37;21.10;99.90
18408;DHT22;9330;52.210;21.174;2023-06-22T05:43:04;21.00;99.90
18408;DHT22;9330;52.210;21.174;2023-06-22T05:45:30;21.00;99.90
18408;DHT22;9330;52.210;21.174;2023-06-22T05:47:57;21.00;99.90
18408;DHT22;9330;52.210;21.174;2023-06-22T05:50:24;21.00;99.90
18408;DHT22;9330;52.210;21.174;2023-06-22T05:52:51;21.00;99.90
18408;DHT22;9330;52.210;21.174;2023-06-22T05:55:18;21.10;99.90
18408;DHT22;9330;52.210;21.174;2023-06-22T05:57:46;21.10;99.90
18408;DHT22;9330;52.210;21.174;2023-06-22T06:00:13;21.10;99.90
18408;DHT22;9330;52.210;21.174;2023-06-22T06:02:40;21.10;99.90
18408;DHT22;9330;52.210;21.174;2023-06-22T06:05:10;21.20;99.90
18408;DHT22;9330;52.210;21.174;2023-06-22T06:07:39;21.20;99.90
18408;DHT22;9330;52.210;21.174;2023-06-22T06:10:06;21.20;99.90
18408;DHT22;9330;52.210;21.174;2023-06-22T06:12:33;21.20;99.90
18408;DHT22;9330;52.210;21.174;2023-06-22T06:15:02;21.20;99.90
18408;DHT22;9330;52.210;21.174;2023-06-22T06:17:29;21.30;99.90
18408;DHT22;9330;52.210;21.174;2023-06-22T06:19:56;21.40;99.90
18408;DHT22;9330;52.210;21.174;2023-06-22T06:22:23;21.40;99.90
18408;DHT22;9330;52.210;21.174;2023-06-22T06:24:50;21.40;99.90
18408;DHT22;9330;52.210;21.174;2023-06-22T06:27:17;21.50;99.90
18408;DHT22;9330;52.210;21.174;2023-06-22T06:29:44;21.40;99.90
18408;DHT22;9330;52.210;21.174;2023-06-22T06:32:15;21.40;99.90
18408;DHT22;9330;52.210;21.174;2023-06-22T06:34:42;21.40;99.90
18408;DHT22;9330;52.210;21.174;2023-06-22T06:37:09;21.40;99.90
18408;DHT22;9330;52.210;21.174;2023-06-22T06:39:36;21.30;99.90
18408;DHT22;9330;52.210;21.174;2023-06-22T06:42:03;21.30;99.90
18408;DHT22;9330;52.210;21.174;2023-06-22T06:44:30;21.40;99.90
18408;DHT22;9330;52.210;21.174;2023-06-22T06:46:57;21.40;99.90
18408;DHT22;9330;52.210;21.174;2023-06-22T06:49:25;21.40;99.90
18408;DHT22;9330;52.210;21.174;2023-06-22T06:51:52;21.40;99.90
18408;DHT22;9330;52.210;21.174;2023-06-22T06:54:21;21.50;99.90
18408;DHT22;9330;52.210;21.174;2023-06-22T06:56:48;21.50;99.90
18408;DHT22;9330;52.210;21.174;2023-06-22T06:59:15;21.60;99.90
18408;DHT22;9330;52.210;21.174;2023-06-22T07:01:42;21.60;99.90
18408;DHT22;9330;52.210;21.174;2023-06-22T07:04:10;21.70;99.90
18408;DHT22;9330;52.210;21.174;2023-06-22T07:06:38;21.70;99.90
18408;DHT22;9330;52.210;21.174;2023-06-22T07:09:05;21.70;99.90
18408;DHT22;9330;52.210;21.174;2023-06-22T07:11:31;21.80;99.90
18408;DHT22;9330;52.210;21.174;2023-06-22T07:14:02;21.70;99.90
18408;DHT22;9330;52.210;21.174;2023-06-22T07:16:28;21.70;99.90
18408;DHT22;9330;52.210;21.174;2023-06-22T07:18:56;21.90;99.90
18408;DHT22;9330;52.210;21.174;2023-06-22T07:21:23;22.00;99.90
18408;DHT22;9330;52.210;21.174;2023-06-22T07:23:51;22.30;99.90
18408;DHT22;9330;52.210;21.174;2023-06-22T07:26:19;22.40;99.90
18408;DHT22;9330;52.210;21.174;2023-06-22T07:28:46;22.60;99.90
18408;DHT22;9330;52.210;21.174;2023-06-22T07:31:13;22.70;99.90
18408;DHT22;9330;52.210;21.174;2023-06-22T07:33:40;22.80;99.90
18408;DHT22;9330;52.210;21.174;2023-06-22T07:36:06;22.90;99.90
18408;DHT22;9330;52.210;21.174;2023-06-22T07:38:34;22.90;99.90
18408;DHT22;9330;52.210;21.174;2023-06-22T07:41:02;23.00;99.90
18408;DHT22;9330;52.210;21.174;2023-06-22T07:43:31;23.10;99.90
18408;DHT22;9330;52.210;21.174;2023-06-22T07:45:58;23.20;99.90
18408;DHT22;9330;52.210;21.174;2023-06-22T07:48:25;23.20;99.90
18408;DHT22;9330;52.210;21.174;2023-06-22T07:50:52;23.50;99.90
18408;DHT22;9330;52.210;21.174;2023-06-22T07:53:19;23.80;99.90
18408;DHT22;9330;52.210;21.174;2023-06-22T07:55:46;24.00;99.90
18408;DHT22;9330;52.210;21.174;2023-06-22T07:58:14;24.00;99.90
18408;DHT22;9330;52.210;21.174;2023-06-22T08:00:44;24.40;99.90
18408;DHT22;9330;52.210;21.174;2023-06-22T08:03:11;24.40;99.90
18408;DHT22;9330;52.210;21.174;2023-06-22T08:05:37;24.30;99.90
18408;DHT22;9330;52.210;21.174;2023-06-22T08:08:04;24.40;99.90
18408;DHT22;9330;52.210;21.174;2023-06-22T08:10:31;24.50;99.90
18408;DHT22;9330;52.210;21.174;2023-06-22T08:12:58;24.70;99.90
18408;DHT22;9330;52.210;21.174;2023-06-22T08:15:27;24.70;99.90
18408;DHT22;9330;52.210;21.174;2023-06-22T08:17:55;24.70;99.90
18408;DHT22;9330;52.210;21.174;2023-06-22T08:20:23;24.50;99.90
18408;DHT22;9330;52.210;21.174;2023-06-22T08:22:50;24.70;99.90
18408;DHT22;9330;52.210;21.174;2023-06-22T08:25:17;25.10;99.90
18408;DHT22;9330;52.210;21.174;2023-06-22T08:27:45;25.10;99.90
18408;DHT22;9330;52.210;21.174;2023-06-22T08:30:12;25.50;99.90
18408;DHT22;9330;52.210;21.174;2023-06-22T08:32:41;25.50;99.90
18408;DHT22;9330;52.210;21.174;2023-06-22T08:35:08;25.80;99.90
18408;DHT22;9330;52.210;21.174;2023-06-22T08:37:35;25.70;99.90
18408;DHT22;9330;52.210;21.174;2023-06-22T08:40:06;25.70;99.90
18408;DHT22;9330;52.210;21.174;2023-06-22T08:42:34;25.90;99.90
18408;DHT22;9330;52.210;21.174;2023-06-22T08:45:01;25.80;99.90
18408;DHT22;9330;52.210;21.174;2023-06-22T08:47:29;26.10;99.90
18408;DHT22;9330;52.210;21.174;2023-06-22T08:49:57;26.20;99.90
18408;DHT22;9330;52.210;21.174;2023-06-22T08:52:24;26.10;99.90
18408;DHT22;9330;52.210;21.174;2023-06-22T08:54:51;26.00;99.90
18408;DHT22;9330;52.210;21.174;2023-06-22T08:57:18;26.10;99.90
18408;DHT22;9330;52.210;21.174;2023-06-22T08:59:45;26.20;99.90
18408;DHT22;9330;52.210;21.174;2023-06-22T09:02:11;26.20;99.90
18408;DHT22;9330;52.210;21.174;2023-06-22T09:04:39;26.30;99.90
18408;DHT22;9330;52.210;21.174;2023-06-22T09:07:07;26.40;99.90
18408;DHT22;9330;52.210;21.174;2023-06-22T09:09:33;26.50;99.90
18408;DHT22;9330;52.210;21.174;2023-06-22T09:12:00;26.60;99.90
18408;DHT22;9330;52.210;21.174;2023-06-22T09:14:27;26.80;99.90
18408;DHT22;9330;52.210;21.174;2023-06-22T09:16:54;26.70;99.90
18408;DHT22;9330;52.210;21.174;2023-06-22T09:19:21;26.70;99.90
18408;DHT22;9330;52.210;21.174;2023-06-22T09:21:47;26.80;99.90
18408;DHT22;9330;52.210;21.174;2023-06-22T09:24:16;26.90;99.90
18408;DHT22;9330;52.210;21.174;2023-06-22T09:26:42;27.00;99.90
18408;DHT22;9330;52.210;21.174;2023-06-22T09:29:09;27.00;99.90
18408;DHT22;9330;52.210;21.174;2023-06-22T09:31:36;27.10;99.90
18408;DHT22;9330;52.210;21.174;2023-06-22T09:34:03;27.10;99.90
18408;DHT22;9330;52.210;21.174;2023-06-22T09:36:30;27.10;99.90
18408;DHT22;9330;52.210;21.174;2023-06-22T09:38:57;27.30;99.60
18408;DHT22;9330;52.210;21.174;2023-06-22T09:41:25;27.20;99.90
18408;DHT22;9330;52.210;21.174;2023-06-22T09:43:52;27.20;98.80
18408;DHT22;9330;52.210;21.174;2023-06-22T09:46:19;27.20;97.30
18408;DHT22;9330;52.210;21.174;2023-06-22T09:48:48;27.10;95.80
18408;DHT22;9330;52.210;21.174;2023-06-22T09:51:14;27.20;93.90
18408;DHT22;9330;52.210;21.174;2023-06-22T09:53:41;27.30;93.20
18408;DHT22;9330;52.210;21.174;2023-06-22T09:56:09;27.30;94.20
18408;DHT22;9330;52.210;21.174;2023-06-22T09:58:42;27.50;99.90
18408;DHT22;9330;52.210;21.174;2023-06-22T10:01:09;27.80;95.60
18408;DHT22;9330;52.210;21.174;2023-06-22T10:03:36;27.80;97.10
18408;DHT22;9330;52.210;21.174;2023-06-22T10:06:03;27.80;91.80
18408;DHT22;9330;52.210;21.174;2023-06-22T10:08:30;27.80;90.50
18408;DHT22;9330;52.210;21.174;2023-06-22T10:10:57;27.80;90.20
18408;DHT22;9330;52.210;21.174;2023-06-22T10:13:24;27.90;82.90
18408;DHT22;9330;52.210;21.174;2023-06-22T10:15:52;27.90;79.90
18408;DHT22;9330;52.210;21.174;2023-06-22T10:18:19;28.00;81.60
18408;DHT22;9330;52.210;21.174;2023-06-22T10:20:48;27.90;78.20
18408;DHT22;9330;52.210;21.174;2023-06-22T10:23:16;28.00;81.80
18408;DHT22;9330;52.210;21.174;2023-06-22T10:25:43;28.10;86.30
18408;DHT22;9330;52.210;21.174;2023-06-22T10:28:10;28.30;82.30
18408;DHT22;9330;52.210;21.174;2023-06-22T10:30:38;28.50;83.60
18408;DHT22;9330;52.210;21.174;2023-06-22T10:33:08;28.40;80.20
18408;DHT22;9330;52.210;21.174;2023-06-22T10:35:35;28.40;81.40
18408;DHT22;9330;52.210;21.174;2023-06-22T10:38:03;28.40;74.70
18408;DHT22;9330;52.210;21.174;2023-06-22T10:40:30;28.40;59.90
18408;DHT22;9330;52.210;21.174;2023-06-22T10:42:57;28.30;58.40
18408;DHT22;9330;52.210;21.174;2023-06-22T10:45:24;28.30;65.10
18408;DHT22;9330;52.210;21.174;2023-06-22T10:47:50;28.30;63.10
18408;DHT22;9330;52.210;21.174;2023-06-22T10:50:19;28.40;66.00
18408;DHT22;9330;52.210;21.174;2023-06-22T10:52:46;28.40;72.40
18408;DHT22;9330;52.210;21.174;2023-06-22T10:55:13;28.50;70.20
18408;DHT22;9330;52.210;21.174;2023-06-22T10:57:40;28.50;63.70
18408;DHT22;9330;52.210;21.174;2023-06-22T11:00:10;28.60;61.30
18408;DHT22;9330;52.210;21.174;2023-06-22T11:02:37;28.60;63.50
18408;DHT22;9330;52.210;21.174;2023-06-22T11:05:05;28.70;73.70
18408;DHT22;9330;52.210;21.174;2023-06-22T11:07:33;28.70;62.10
18408;DHT22;9330;52.210;21.174;2023-06-22T11:10:00;28.70;64.30
18408;DHT22;9330;52.210;21.174;2023-06-22T11:12:27;28.70;63.60
18408;DHT22;9330;52.210;21.174;2023-06-22T11:14:54;28.70;62.20
18408;DHT22;9330;52.210;21.174;2023-06-22T11:17:22;28.80;63.60
18408;DHT22;9330;52.210;21.174;2023-06-22T11:19:49;28.80;65.50
18408;DHT22;9330;52.210;21.174;2023-06-22T11:22:16;29.00;62.50
18408;DHT22;9330;52.210;21.174;2023-06-22T11:24:44;28.90;60.00
18408;DHT22;9330;52.210;21.174;2023-06-22T11:27:11;29.10;59.70
18408;DHT22;9330;52.210;21.174;2023-06-22T11:29:38;29.10;58.90
18408;DHT22;9330;52.210;21.174;2023-06-22T11:32:06;29.10;58.60
18408;DHT22;9330;52.210;21.174;2023-06-22T11:34:33;29.30;57.50
18408;DHT22;9330;52.210;21.174;2023-06-22T11:37:00;29.10;58.50
18408;DHT22;9330;52.210;21.174;2023-06-22T11:39:27;29.50;64.50
18408;DHT22;9330;52.210;21.174;2023-06-22T11:41:55;29.60;59.50
18408;DHT22;9330;52.210;21.174;2023-06-22T11:44:22;29.80;65.00
18408;DHT22;9330;52.210;21.174;2023-06-22T11:46:48;30.00;57.90
18408;DHT22;9330;52.210;21.174;2023-06-22T11:49:16;30.10;57.50
18408;DHT22;9330;52.210;21.174;2023-06-22T11:51:43;30.20;57.00
18408;DHT22;9330;52.210;21.174;2023-06-22T11:54:10;30.30;58.30
18408;DHT22;9330;52.210;21.174;2023-06-22T11:56:36;30.00;56.80
18408;DHT22;9330;52.210;21.174;2023-06-22T11:59:05;30.00;53.80
18408;DHT22;9330;52.210;21.174;2023-06-22T12:01:31;30.10;53.60
18408;DHT22;9330;52.210;21.174;2023-06-22T12:03:59;30.20;55.10
18408;DHT22;9330;52.210;21.174;2023-06-22T12:06:25;30.20;56.50
18408;DHT22;9330;52.210;21.174;2023-06-22T12:08:52;30.40;55.50
18408;DHT22;9330;52.210;21.174;2023-06-22T12:11:19;30.50;53.80
18408;DHT22;9330;52.210;21.174;2023-06-22T12:13:46;30.30;51.00
18408;DHT22;9330;52.210;21.174;2023-06-22T12:16:14;30.30;53.80
18408;DHT22;9330;52.210;21.174;2023-06-22T12:18:41;30.40;53.90
18408;DHT22;9330;52.210;21.174;2023-06-22T12:21:08;30.50;54.30
18408;DHT22;9330;52.210;21.174;2023-06-22T12:23:35;30.40;54.50
18408;DHT22;9330;52.210;21.174;2023-06-22T12:26:01;30.50;57.00
18408;DHT22;9330;52.210;21.174;2023-06-22T12:28:28;30.50;53.70
18408;DHT22;9330;52.210;21.174;2023-06-22T12:30:55;30.60;52.70
18408;DHT22;9330;52.210;21.174;2023-06-22T12:33:23;30.80;51.90
18408;DHT22;9330;52.210;21.174;2023-06-22T12:35:50;31.20;54.90
18408;DHT22;9330;52.210;21.174;2023-06-22T12:38:17;31.10;55.50
18408;DHT22;9330;52.210;21.174;2023-06-22T12:40:44;30.80;50.80
18408;DHT22;9330;52.210;21.174;2023-06-22T12:43:12;30.80;51.50
18408;DHT22;9330;52.210;21.174;2023-06-22T12:45:39;30.80;52.10
18408;DHT22;9330;52.210;21.174;2023-06-22T12:48:06;30.80;49.30
18408;DHT22;9330;52.210;21.174;2023-06-22T12:50:35;30.80;50.60
18408;DHT22;9330;52.210;21.174;2023-06-22T12:53:02;30.70;49.60
18408;DHT22;9330;52.210;21.174;2023-06-22T12:55:29;31.00;51.10
18408;DHT22;9330;52.210;21.174;2023-06-22T12:57:56;30.70;51.00
18408;DHT22;9330;52.210;21.174;2023-06-22T13:00:23;30.60;48.70
18408;DHT22;9330;52.210;21.174;2023-06-22T13:02:50;30.50;50.40
18408;DHT22;9330;52.210;21.174;2023-06-22T13:05:17;30.50;50.50
18408;DHT22;9330;52.210;21.174;2023-06-22T13:07:45;30.50;53.60
18408;DHT22;9330;52.210;21.174;2023-06-22T13:10:12;30.30;51.70
18408;DHT22;9330;52.210;21.174;2023-06-22T13:12:39;30.00;52.40
18408;DHT22;9330;52.210;21.174;2023-06-22T13:15:06;30.00;50.30
18408;DHT22;9330;52.210;21.174;2023-06-22T13:17:33;29.80;49.20
18408;DHT22;9330;52.210;21.174;2023-06-22T13:20:00;29.70;52.00
18408;DHT22;9330;52.210;21.174;2023-06-22T13:22:30;29.60;50.00
18408;DHT22;9330;52.210;21.174;2023-06-22T13:24:59;29.40;51.00
18408;DHT22;9330;52.210;21.174;2023-06-22T13:27:27;29.30;51.00
18408;DHT22;9330;52.210;21.174;2023-06-22T13:29:54;29.20;51.20
18408;DHT22;9330;52.210;21.174;2023-06-22T13:32:21;29.20;49.00
18408;DHT22;9330;52.210;21.174;2023-06-22T13:34:48;29.00;49.10
18408;DHT22;9330;52.210;21.174;2023-06-22T13:37:14;29.00;49.10
18408;DHT22;9330;52.210;21.174;2023-06-22T13:39:41;29.00;51.10
18408;DHT22;9330;52.210;21.174;2023-06-22T13:42:09;28.90;49.80
18408;DHT22;9330;52.210;21.174;2023-06-22T13:44:36;28.90;50.10
18408;DHT22;9330;52.210;21.174;2023-06-22T13:47:04;29.00;48.80
18408;DHT22;9330;52.210;21.174;2023-06-22T13:49:31;29.00;49.80
18408;DHT22;9330;52.210;21.174;2023-06-22T13:51:58;29.10;48.70
18408;DHT22;9330;52.210;21.174;2023-06-22T13:54:25;29.00;48.80
18408;DHT22;9330;52.210;21.174;2023-06-22T13:56:52;29.10;51.60
18408;DHT22;9330;52.210;21.174;2023-06-22T13:59:20;29.00;49.40
18408;DHT22;9330;52.210;21.174;2023-06-22T14:01:47;28.90;49.90
18408;DHT22;9330;52.210;21.174;2023-06-22T14:04:14;28.90;50.10
18408;DHT22;9330;52.210;21.174;2023-06-22T14:06:40;29.00;51.70
18408;DHT22;9330;52.210;21.174;2023-06-22T14:09:07;29.00;51.10
18408;DHT22;9330;52.210;21.174;2023-06-22T14:11:34;29.10;52.50
18408;DHT22;9330;52.210;21.174;2023-06-22T14:14:01;29.10;50.90
18408;DHT22;9330;52.210;21.174;2023-06-22T14:16:29;29.10;50.10
18408;DHT22;9330;52.210;21.174;2023-06-22T14:18:56;29.20;50.40
18408;DHT22;9330;52.210;21.174;2023-06-22T14:21:23;29.10;50.60
18408;DHT22;9330;52.210;21.174;2023-06-22T14:23:50;29.00;50.50
18408;DHT22;9330;52.210;21.174;2023-06-22T14:26:17;28.90;49.70
18408;DHT22;9330;52.210;21.174;2023-06-22T14:28:45;28.90;51.60
18408;DHT22;9330;52.210;21.174;2023-06-22T14:31:14;28.80;51.40
18408;DHT22;9330;52.210;21.174;2023-06-22T14:33:46;28.80;54.40
18408;DHT22;9330;52.210;21.174;2023-06-22T14:36:13;28.80;53.00
18408;DHT22;9330;52.210;21.174;2023-06-22T14:38:40;28.80;53.50
18408;DHT22;9330;52.210;21.174;2023-06-22T14:41:07;28.80;54.20
18408;DHT22;9330;52.210;21.174;2023-06-22T14:43:34;28.70;55.10
18408;DHT22;9330;52.210;21.174;2023-06-22T14:46:00;28.70;52.70
18408;DHT22;9330;52.210;21.174;2023-06-22T14:48:27;28.60;52.60
18408;DHT22;9330;52.210;21.174;2023-06-22T14:50:56;28.60;53.60
18408;DHT22;9330;52.210;21.174;2023-06-22T14:53:23;28.50;53.90
18408;DHT22;9330;52.210;21.174;2023-06-22T14:55:51;28.60;54.40
18408;DHT22;9330;52.210;21.174;2023-06-22T14:58:19;28.60;52.90
18408;DHT22;9330;52.210;21.174;2023-06-22T15:00:46;28.60;54.50
18408;DHT22;9330;52.210;21.174;2023-06-22T15:03:12;28.60;53.70
18408;DHT22;9330;52.210;21.174;2023-06-22T15:05:46;28.60;55.20
18408;DHT22;9330;52.210;21.174;2023-06-22T15:08:14;28.50;52.80
18408;DHT22;9330;52.210;21.174;2023-06-22T15:10:41;28.60;52.60
18408;DHT22;9330;52.210;21.174;2023-06-22T15:13:07;28.60;53.40
18408;DHT22;9330;52.210;21.174;2023-06-22T15:15:35;28.50;52.70
18408;DHT22;9330;52.210;21.174;2023-06-22T15:18:01;28.50;52.70
18408;DHT22;9330;52.210;21.174;2023-06-22T15:20:28;28.50;53.20
18408;DHT22;9330;52.210;21.174;2023-06-22T15:22:57;28.60;53.50
18408;DHT22;9330;52.210;21.174;2023-06-22T15:25:25;28.60;53.60
18408;DHT22;9330;52.210;21.174;2023-06-22T15:27:52;28.60;54.70
18408;DHT22;9330;52.210;21.174;2023-06-22T15:30:19;28.60;53.10
18408;DHT22;9330;52.210;21.174;2023-06-22T15:32:46;28.50;52.70